createdAt,value
2018-06-25T09:12:05.103Z,45.9
2018-06-25T09:12:55.359Z,45.9
2018-06-25T09:13:45.974Z,45.8
2018-06-25T09:14:35.737Z,45.4
2018-06-25T09:15:28.079Z,45.2
2018-06-25T09:16:16.659Z,44.9
2018-06-25T09:17:06.503Z,44.8
2018-06-25T09:17:56.483Z,44.6
2018-06-25T09:18:46.278Z,44.5
2018-06-25T09:19:36.877Z,44.6
2018-06-25T09:20:26.995Z,44.7
2018-06-25T09:21:16.467Z,44.9
2018-06-25T09:22:07.484Z,45.1
2018-06-25T09:22:56.044Z,45.3
2018-06-25T09:23:46.996Z,45.4
2018-06-25T09:24:36.976Z,45.7
2018-06-25T09:25:27.104Z,46.1
2018-06-25T09:26:17.111Z,46.6
2018-06-25T09:27:06.661Z,46.9
2018-06-25T09:27:57.228Z,46.8
2018-06-25T09:28:47.600Z,46.8
2018-06-25T09:29:37.710Z,46.9
2018-06-25T09:30:26.888Z,47.1
2018-06-25T09:31:16.984Z,47.1
2018-06-25T09:32:07.322Z,47.4
2018-06-25T09:32:57.638Z,47.7
2018-06-25T09:33:46.600Z,48.1
2018-06-25T09:34:38.108Z,48.3
2018-06-25T09:35:28.909Z,48.4
2018-06-25T09:36:18.164Z,48.6
2018-06-25T09:37:07.741Z,48.8
2018-06-25T09:37:57.727Z,49
2018-06-25T09:38:47.556Z,49
2018-06-25T09:39:38.205Z,49
2018-06-25T09:40:27.626Z,49
2018-06-25T09:41:18.963Z,49.3
2018-06-25T09:42:08.382Z,49.9
2018-06-25T09:42:58.507Z,50.4
2018-06-25T09:43:48.047Z,50.5
2018-06-25T09:44:38.550Z,50.4
2018-06-25T09:45:28.039Z,50.1
2018-06-25T09:46:18.421Z,50.1
2018-06-25T09:47:09.692Z,50.6
2018-06-25T09:47:58.805Z,51.2
2018-06-25T09:48:48.601Z,51.5
2018-06-25T09:49:38.663Z,51.3
2018-06-25T09:50:29.017Z,50.8
2018-06-25T09:51:18.505Z,50.3
2018-06-25T09:52:09.119Z,49.7
2018-06-25T09:52:59.466Z,49.4
2018-06-25T09:53:49.265Z,49.4
2018-06-25T09:54:38.633Z,50.1
2018-06-25T09:55:29.631Z,50.6
2018-06-25T09:56:18.869Z,50.6
2018-06-25T09:57:09.222Z,50.3
2018-06-25T09:57:59.542Z,49.9
2018-06-25T09:58:49.678Z,49.7
2018-06-25T09:59:39.141Z,49.5
2018-06-25T10:00:30.020Z,49.3
2018-06-25T10:01:19.822Z,49.1
2018-06-25T10:02:09.592Z,49
2018-06-25T10:02:59.637Z,48.9
2018-06-25T10:03:50.025Z,48.8
2018-06-25T10:04:40.078Z,48.7
2018-06-25T10:05:30.135Z,48.6
2018-06-25T10:06:20.485Z,48.6
2018-06-25T10:07:09.742Z,48.9
2018-06-25T10:08:00.556Z,48.9
2018-06-25T10:08:50.159Z,48.8
2018-06-25T10:09:39.888Z,48.6
2018-06-25T10:10:30.525Z,48.5
2018-06-25T10:11:20.861Z,48.4
2018-06-25T10:12:10.359Z,48.4
2018-06-25T10:13:00.711Z,48.4
2018-06-25T10:13:50.551Z,48.7
2018-06-25T10:14:40.784Z,48.9
2018-06-25T10:15:30.617Z,48.9
2018-06-25T10:16:20.957Z,48.9
2018-06-25T10:17:10.985Z,48.9
2018-06-25T10:18:01.125Z,49
2018-06-25T10:18:51.155Z,49.4
2018-06-25T10:19:41.563Z,49.6
2018-06-25T10:20:31.584Z,49.6
2018-06-25T10:21:22.237Z,49.8
2018-06-25T10:22:11.133Z,50
2018-06-25T10:23:01.787Z,50.2
2018-06-25T10:23:50.989Z,50.3
2018-06-25T10:24:41.593Z,50.3
2018-06-25T10:25:31.392Z,50.1
2018-06-25T10:26:21.493Z,50.3
2018-06-25T10:27:11.911Z,51
2018-06-25T10:28:51.670Z,52.6
2018-06-25T10:29:41.705Z,53.1
2018-06-25T10:30:31.519Z,53.3
2018-06-25T10:31:22.437Z,53.4
2018-06-25T10:32:12.465Z,53.5
2018-06-25T10:33:01.866Z,53.1
2018-06-25T10:33:52.330Z,52.3
2018-06-25T10:34:43.004Z,51.4
2018-06-25T10:35:32.721Z,51.2
2018-06-25T10:36:22.468Z,51.3
2018-06-25T10:37:12.275Z,51.6
2018-06-25T10:38:02.972Z,52.2
2018-06-25T10:38:51.834Z,52.9
2018-06-25T10:39:43.044Z,53.6
2018-06-25T10:40:32.792Z,53.9
2018-06-25T10:41:23.147Z,54
2018-06-25T10:42:14.611Z,54.1
2018-06-25T10:43:03.016Z,54.1
2018-06-25T10:43:53.048Z,54.1
2018-06-25T10:44:43.110Z,54.1
2018-06-25T10:45:33.502Z,54.2
2018-06-25T10:46:22.993Z,54.3
2018-06-25T10:47:12.748Z,54.4
2018-06-25T10:48:03.405Z,54.5
2018-06-25T10:48:52.930Z,54.7
2018-06-25T10:49:43.519Z,54.9
2018-06-25T10:50:33.000Z,55.1
2018-06-25T10:51:22.868Z,55.1
2018-06-25T10:52:13.437Z,54.6
2018-06-25T10:53:03.777Z,53.8
2018-06-25T10:53:53.236Z,53.6
2018-06-25T10:54:43.559Z,54.1
2018-06-25T10:55:33.927Z,55.1
2018-06-25T10:56:23.588Z,55.7
2018-06-25T10:57:13.505Z,56
2018-06-25T10:58:04.170Z,56.1
2018-06-25T10:58:54.440Z,56.1
2018-06-25T10:59:45.531Z,56.1
2018-06-25T11:00:33.918Z,56.2
2018-06-25T11:01:24.408Z,56.4
2018-06-25T11:02:14.700Z,56.5
2018-06-25T11:03:04.538Z,56.6
2018-06-25T11:03:54.852Z,56.8
2018-06-25T11:04:44.934Z,56.9
2018-06-25T11:05:34.684Z,57
2018-06-25T11:06:24.277Z,56.9
2018-06-25T11:07:16.857Z,56.4
2018-06-25T11:08:04.131Z,55.4
2018-06-25T11:08:54.997Z,55.1
2018-06-25T11:09:45.028Z,55.5
2018-06-25T11:10:34.880Z,56.2
2018-06-25T11:11:24.606Z,56.6
2018-06-25T11:12:14.488Z,56.1
2018-06-25T11:13:06.449Z,55.1
2018-06-25T11:13:54.921Z,54.3
2018-06-25T11:14:44.589Z,53.8
2018-06-25T11:15:35.540Z,53.5
2018-06-25T11:16:24.995Z,53.2
2018-06-25T11:17:15.411Z,53
2018-06-25T11:18:05.942Z,52.8
2018-06-25T11:18:56.021Z,52.6
2018-06-25T11:21:25.978Z,52.9
2018-06-25T11:22:15.433Z,53.4
2018-06-25T11:23:06.060Z,53.4
2018-06-25T11:23:55.666Z,53.3
2018-06-25T11:24:45.635Z,53.2
2018-06-25T11:25:36.241Z,53.6
2018-06-25T11:26:26.102Z,53.8
2018-06-25T11:27:16.655Z,53.4
2018-06-25T11:28:06.464Z,53
2018-06-25T11:28:55.946Z,52.9
2018-06-25T11:29:46.307Z,53.1
2018-06-25T11:30:36.049Z,53
2018-06-25T11:31:26.939Z,52.8
2018-06-25T11:32:17.056Z,52.5
2018-06-25T11:33:07.097Z,52.2
2018-06-25T11:33:56.356Z,52
2018-06-25T11:34:47.284Z,51.9
2018-06-25T11:35:36.752Z,51.8
2018-06-25T11:36:26.807Z,51.8
2018-06-25T11:37:17.449Z,51.8
2018-06-25T11:38:07.213Z,51.7
2018-06-25T11:38:57.072Z,51.6
2018-06-25T11:39:47.352Z,51.7
2018-06-25T11:40:36.858Z,52.4
2018-06-25T11:41:27.470Z,53.6
2018-06-25T11:42:17.534Z,54.5
2018-06-25T11:43:07.602Z,54.4
2018-06-25T11:43:57.659Z,53.9
2018-06-25T11:44:47.735Z,53.1
2018-06-25T11:45:37.504Z,52.6
2018-06-25T11:46:27.869Z,52.2
2018-06-25T11:47:17.397Z,52.1
2018-06-25T11:48:57.489Z,51.8
2018-06-25T11:49:48.118Z,51.6
2018-06-25T11:50:37.593Z,51.4
2018-06-25T11:51:28.261Z,51.2
2018-06-25T11:52:18.065Z,51.1
2018-06-25T11:53:07.527Z,50.9
2018-06-25T11:53:57.647Z,50.8
2018-06-25T11:54:48.746Z,50.6
2018-06-25T11:55:38.025Z,50.6
2018-06-25T11:56:27.956Z,50.4
2018-06-25T11:57:16.991Z,50.3
2018-06-25T11:58:08.095Z,50.2
2018-06-25T11:58:58.046Z,50.1
2018-06-25T11:59:48.338Z,50.1
2018-06-25T12:00:38.705Z,50
2018-06-25T12:01:28.479Z,49.9
2018-06-25T12:02:19.177Z,49.9
2018-06-25T12:03:10.726Z,49.8
2018-06-25T12:03:59.475Z,49.8
2018-06-25T12:04:49.003Z,49.8
2018-06-25T12:05:39.040Z,49.8
2018-06-25T12:06:28.825Z,49.8
2018-06-25T12:07:19.295Z,49.7
2018-06-25T12:08:09.840Z,49.7
2018-06-25T12:08:59.335Z,49.6
2018-06-25T12:09:49.939Z,49.6
2018-06-25T12:10:41.050Z,49.5
2018-06-25T12:11:29.281Z,49.4
2018-06-25T12:12:19.754Z,49.4
2018-06-25T12:13:09.169Z,49.3
2018-06-25T12:13:59.953Z,49.3
2018-06-25T12:14:50.306Z,49.1
2018-06-25T12:15:40.358Z,49
2018-06-25T12:16:30.158Z,48.9
2018-06-25T12:17:19.960Z,48.9
2018-06-25T12:18:09.834Z,48.8
2018-06-25T12:19:01.041Z,48.7
2018-06-25T12:19:50.208Z,48.6
2018-06-25T12:20:40.473Z,48.6
2018-06-25T12:21:30.568Z,48.6
2018-06-25T12:22:20.393Z,48.5
2018-06-25T12:23:11.091Z,48.4
2018-06-25T12:24:00.472Z,48.4
2018-06-25T12:24:50.836Z,48.4
2018-06-25T12:25:40.348Z,48.3
2018-06-25T12:26:30.349Z,48.3
2018-06-25T12:27:20.735Z,48.3
2018-06-25T12:28:11.305Z,48.2
2018-06-25T12:29:00.844Z,48.2
2018-06-25T12:29:51.442Z,48.1
2018-06-25T12:30:40.760Z,48.3
2018-06-25T12:31:31.608Z,48.7
2018-06-25T12:32:21.395Z,49.1
2018-06-25T12:33:10.898Z,49.2
2018-06-25T12:34:01.492Z,48.9
2018-06-25T12:34:51.278Z,48.6
2018-06-25T12:35:41.406Z,48.3
2018-06-25T12:36:31.955Z,48.3
2018-06-25T12:37:22.030Z,48.2
2018-06-25T12:38:12.097Z,48.2
2018-06-25T12:39:01.559Z,48.2
2018-06-25T12:39:51.661Z,48.1
2018-06-25T12:40:41.720Z,48.1
2018-06-25T12:41:33.208Z,48.3
2018-06-25T12:42:22.438Z,48.7
2018-06-25T12:43:12.286Z,48.9
2018-06-25T12:44:02.024Z,49.3
2018-06-25T12:44:52.322Z,49.6
2018-06-25T12:45:41.543Z,49.4
2018-06-25T12:46:32.770Z,49.6
2018-06-25T12:47:21.737Z,50.1
2018-06-25T12:48:12.304Z,50.6
2018-06-25T12:49:02.677Z,50.8
2018-06-25T12:49:52.692Z,50.5
2018-06-25T12:50:42.798Z,49.9
2018-06-25T12:51:32.851Z,49.4
2018-06-25T12:52:23.248Z,49.1
2018-06-25T12:53:12.985Z,48.9
2018-06-25T12:54:03.574Z,48.8
2018-06-25T12:54:53.137Z,48.8
2018-06-25T12:55:42.630Z,48.8
2018-06-25T12:56:32.683Z,48.9
2018-06-25T12:57:23.596Z,49.3
2018-06-25T12:58:12.532Z,49.5
2018-06-25T12:59:02.912Z,49.6
2018-06-25T12:59:53.787Z,49.5
2018-06-25T13:00:43.508Z,49.4
2018-06-25T13:01:33.697Z,49.2
2018-06-25T13:02:23.657Z,49.1
2018-06-25T13:03:14.012Z,48.9
2018-06-25T13:04:03.039Z,48.8
2018-06-25T13:04:53.896Z,48.8
2018-06-25T13:05:44.192Z,48.7
2018-06-25T13:06:34.506Z,48.6
2018-06-25T13:07:23.760Z,48.4
2018-06-25T13:08:13.299Z,48.4
2018-06-25T13:09:03.762Z,48.3
2018-06-25T13:09:53.699Z,48.2
2018-06-25T13:10:44.550Z,48.1
2018-06-25T13:11:34.656Z,48.1
2018-06-25T13:12:24.768Z,48.1
2018-06-25T13:13:14.228Z,47.9
2018-06-25T13:14:04.267Z,47.9
2018-06-25T13:14:54.920Z,47.9
2018-06-25T13:15:44.428Z,47.8
2018-06-25T13:16:34.023Z,47.8
2018-06-25T13:17:25.153Z,47.7
2018-06-25T13:18:15.819Z,47.6
2018-06-25T13:19:04.966Z,47.4
2018-06-25T13:19:54.177Z,47.3
2018-06-25T13:20:46.614Z,47.2
2018-06-25T13:21:34.865Z,47.1
2018-06-25T13:22:24.734Z,47
2018-06-25T13:23:15.560Z,46.9
2018-06-25T13:24:05.340Z,46.9
2018-06-25T13:24:55.360Z,46.8
2018-06-25T13:25:47.321Z,46.8
2018-06-25T13:26:34.673Z,46.7
2018-06-25T13:27:25.895Z,46.6
2018-06-25T13:28:15.900Z,46.6
2018-06-25T13:29:05.321Z,46.5
2018-06-25T13:29:55.741Z,46.4
2018-06-25T13:30:46.144Z,46.4
2018-06-25T13:31:36.475Z,46.3
2018-06-25T13:32:25.679Z,46.3
2018-06-25T13:33:16.364Z,46.2
2018-06-25T13:34:06.238Z,46.2
2018-06-25T13:34:56.491Z,46.2
2018-06-25T13:35:46.528Z,46.3
2018-06-25T13:36:36.333Z,46.5
2018-06-25T13:37:26.342Z,46.7
2018-06-25T13:38:17.445Z,46.8
2018-06-25T13:39:06.820Z,46.9
2018-06-25T13:39:56.249Z,46.9
2018-06-25T13:40:46.059Z,46.8
2018-06-25T13:41:36.338Z,46.8
2018-06-25T13:42:26.785Z,46.7
2018-06-25T13:43:15.993Z,46.5
2018-06-25T13:44:06.620Z,46.3
2018-06-25T13:44:56.380Z,46.2
2018-06-25T13:45:47.578Z,46.1
2018-06-25T13:46:37.382Z,45.9
2018-06-25T13:47:27.415Z,45.9
2018-06-25T13:48:16.651Z,45.9
2018-06-25T13:49:07.394Z,46
2018-06-25T13:49:57.636Z,46.3
2018-06-25T13:50:47.177Z,46.6
2018-06-25T13:51:37.205Z,46.9
2018-06-25T13:52:27.547Z,47.1
2018-06-25T13:53:16.995Z,47.3
2018-06-25T13:54:07.641Z,47.4
2018-06-25T13:54:57.919Z,47.4
2018-06-25T13:55:47.493Z,47.5
2018-06-25T13:56:38.157Z,47.6
2018-06-25T13:57:27.614Z,47.7
2018-06-25T13:58:18.028Z,47.8
2018-06-25T13:59:08.326Z,47.8
2018-06-25T13:59:57.307Z,47.7
2018-06-25T14:00:48.884Z,47.5
2018-06-25T14:01:37.714Z,47.3
2018-06-25T14:02:28.556Z,47.3
2018-06-25T14:03:18.373Z,47.3
2018-06-25T14:04:08.464Z,47.3
2018-06-25T14:04:58.514Z,47.3
2018-06-25T14:05:48.263Z,47.3
2018-06-25T14:06:37.768Z,47
2018-06-25T14:07:28.984Z,46.7
2018-06-25T14:08:19.090Z,46.4
2018-06-25T14:09:08.240Z,46.1
2018-06-25T14:09:59.231Z,46
2018-06-25T14:10:48.138Z,45.8
2018-06-25T14:11:38.735Z,45.7
2018-06-25T14:12:28.188Z,45.6
2018-06-25T14:13:19.412Z,45.4
2018-06-25T14:14:09.246Z,45.3
2018-06-25T14:14:58.186Z,45.2
2018-06-25T14:15:49.378Z,45.1
2018-06-25T14:16:39.999Z,45
2018-06-25T14:17:29.123Z,44.9
2018-06-25T14:18:19.815Z,44.8
2018-06-25T14:19:09.841Z,44.8
2018-06-25T14:20:00.357Z,44.6
2018-06-25T14:20:49.965Z,44.6
2018-06-25T14:21:39.509Z,44.6
2018-06-25T14:22:29.210Z,44.5
2018-06-25T14:23:19.621Z,44.4
2018-06-25T14:24:09.966Z,44.4
2018-06-25T14:25:00.257Z,44.3
2018-06-25T14:25:50.308Z,44.3
2018-06-25T14:26:39.951Z,44.1
2018-06-25T14:27:30.185Z,44.1
2018-06-25T14:28:20.122Z,43.9
2018-06-25T14:29:10.022Z,43.9
2018-06-25T14:29:59.983Z,43.8
2018-06-25T14:30:49.699Z,43.8
2018-06-25T14:31:40.042Z,43.7
2018-06-25T14:32:29.821Z,43.6
2018-06-25T14:33:20.489Z,43.6
2018-06-25T14:34:10.523Z,43.5
2018-06-25T14:35:00.661Z,43.4
2018-06-25T14:35:49.756Z,43.4
2018-06-25T14:36:40.405Z,43.4
2018-06-25T14:37:30.760Z,43.3
2018-06-25T14:38:21.021Z,43.3
2018-06-25T14:39:11.086Z,43.3
2018-06-25T14:40:01.288Z,43.3
2018-06-25T14:40:52.442Z,43.2
2018-06-25T14:41:41.237Z,43.2
2018-06-25T14:42:31.359Z,43.1
2018-06-25T14:43:21.426Z,43.1
2018-06-25T14:44:11.210Z,43.1
2018-06-25T14:45:01.552Z,43.1
2018-06-25T14:45:51.636Z,43.1
2018-06-25T14:46:41.681Z,43
2018-06-25T14:47:31.170Z,43
2018-06-25T14:48:22.810Z,42.9
2018-06-25T14:49:11.316Z,42.9
2018-06-25T14:50:02.302Z,42.9
2018-06-25T14:50:51.962Z,42.9
2018-06-25T14:51:41.796Z,42.8
2018-06-25T14:52:32.860Z,42.8
2018-06-25T14:53:22.445Z,42.8
2018-06-25T14:54:11.958Z,42.8
2018-06-25T14:55:02.607Z,42.7
2018-06-25T14:55:52.110Z,42.7
2018-06-25T14:56:42.798Z,42.6
2018-06-25T14:57:32.190Z,42.6
2018-06-25T14:58:22.575Z,42.6
2018-06-25T14:59:12.970Z,42.4
2018-06-25T15:00:02.400Z,42.4
2018-06-25T15:00:53.010Z,42.4
2018-06-25T15:01:43.120Z,42.3
2018-06-25T15:02:33.027Z,42.3
2018-06-25T15:03:23.192Z,42.3
2018-06-25T15:04:12.163Z,42.2
2018-06-25T15:05:03.081Z,42.1
2018-06-25T15:05:52.878Z,42.1
2018-06-25T15:06:42.977Z,41.9
2018-06-25T15:07:32.699Z,41.9
2018-06-25T15:08:22.783Z,41.9
2018-06-25T15:09:12.812Z,41.9
2018-06-25T15:10:02.588Z,41.8
2018-06-25T15:10:53.223Z,41.8
2018-06-25T15:12:00.576Z,41.8
2018-06-25T15:12:50.631Z,41.8
2018-06-25T15:13:41.248Z,41.8
2018-06-25T15:14:31.574Z,41.8
2018-06-25T15:15:21.333Z,41.8
2018-06-25T15:16:11.474Z,41.9
2018-06-25T15:17:00.936Z,41.8
2018-06-25T15:17:51.669Z,41.9
2018-06-25T15:18:41.325Z,41.9
2018-06-25T15:19:31.451Z,41.8
2018-06-25T15:20:22.108Z,41.8
2018-06-25T15:21:11.569Z,41.8
2018-06-25T15:22:01.319Z,41.7
2018-06-25T15:22:52.224Z,41.6
2018-06-25T15:23:41.733Z,41.6
2018-06-25T15:24:31.792Z,41.5
2018-06-25T15:25:22.132Z,41.4
2018-06-25T15:26:12.724Z,41.4
2018-06-25T15:27:01.992Z,41.3
2018-06-25T15:27:52.385Z,41.3
2018-06-25T15:28:42.364Z,41.2
2018-06-25T15:29:32.488Z,41.1
2018-06-25T15:30:22.808Z,41.1
2018-06-25T15:31:12.865Z,40.9
2018-06-25T15:32:02.830Z,40.9
2018-06-25T15:32:52.713Z,40.8
2018-06-25T15:33:43.072Z,40.8
2018-06-25T15:34:33.133Z,40.7
2018-06-25T15:35:22.603Z,40.7
2018-06-25T15:36:12.724Z,40.6
2018-06-25T15:37:03.017Z,40.6
2018-06-25T15:37:52.802Z,40.5
2018-06-25T15:38:43.412Z,40.4
2018-06-25T15:39:33.197Z,40.4
2018-06-25T15:40:23.278Z,40.4
2018-06-25T15:41:13.325Z,40.4
2018-06-25T15:42:03.162Z,40.3
2018-06-25T15:42:53.745Z,40.3
2018-06-25T15:43:43.817Z,40.3
2018-06-25T15:44:33.852Z,40.3
2018-06-25T15:45:23.382Z,40.2
2018-06-25T15:46:13.247Z,40.2
2018-06-25T15:47:02.975Z,40.1
2018-06-25T15:47:54.056Z,40.1
2018-06-25T15:48:42.890Z,40
2018-06-25T15:49:34.014Z,39.9
2018-06-25T15:50:23.288Z,39.9
2018-06-25T15:51:13.037Z,39.9
2018-06-25T15:52:03.695Z,39.9
2018-06-25T15:52:53.750Z,39.9
2018-06-25T15:53:44.082Z,39.9
2018-06-25T15:54:33.652Z,39.8
2018-06-25T15:55:24.223Z,39.8
2018-06-25T15:56:14.287Z,39.8
2018-06-25T15:57:04.088Z,39.8
2018-06-25T15:57:54.125Z,39.8
2018-06-25T15:58:44.544Z,39.8
2018-06-25T15:59:33.980Z,39.8
2018-06-25T16:00:24.301Z,39.8
2018-06-25T16:01:14.151Z,39.8
2018-06-25T16:02:04.762Z,39.8
2018-06-25T16:02:54.795Z,39.8
2018-06-25T16:03:44.223Z,39.7
2018-06-25T16:04:35.147Z,39.6
2018-06-25T16:05:24.665Z,39.6
2018-06-25T16:06:15.254Z,39.5
2018-06-25T16:07:07.435Z,39.5
2018-06-25T16:07:54.833Z,39.4
2018-06-25T16:08:45.170Z,39.4
2018-06-25T16:09:35.788Z,39.3
2018-06-25T16:10:25.549Z,39.3
2018-06-25T16:11:15.647Z,39.2
2018-06-25T16:12:06.005Z,39.2
2018-06-25T16:12:56.034Z,39.1
2018-06-25T16:13:45.854Z,39.1
2018-06-25T16:14:35.936Z,39
2018-06-25T16:15:25.693Z,38.9
2018-06-25T16:16:16.271Z,38.9
2018-06-25T16:17:05.537Z,38.8
2018-06-25T16:17:55.701Z,38.8
2018-06-25T16:18:45.961Z,38.8
2018-06-25T16:19:36.012Z,38.7
2018-06-25T16:20:26.601Z,38.6
2018-06-25T16:21:16.397Z,38.6
2018-06-25T16:22:05.934Z,38.6
2018-06-25T16:22:56.363Z,38.6
2018-06-25T16:23:45.754Z,38.5
2018-06-25T16:24:36.063Z,38.4
2018-06-25T16:25:26.769Z,38.4
2018-06-25T16:26:15.922Z,38.3
2018-06-25T16:27:06.566Z,38.3
2018-06-25T16:27:56.669Z,38.3
2018-06-25T16:28:48.266Z,38.2
2018-06-25T16:29:36.444Z,38.1
2018-06-25T16:30:26.542Z,38
2018-06-25T16:31:16.617Z,37.8
2018-06-25T16:32:07.525Z,37.6
2018-06-25T16:32:57.605Z,37.4
2018-06-25T16:33:47.330Z,37.2
2018-06-25T16:34:36.844Z,37
2018-06-25T16:35:26.976Z,36.8
2018-06-25T16:36:17.271Z,36.7
2018-06-25T16:37:07.655Z,36.5
2018-06-25T16:37:57.116Z,36.4
2018-06-25T16:38:47.766Z,36.3
2018-06-25T16:39:37.842Z,36.1
2018-06-25T16:40:28.147Z,36
2018-06-25T16:41:17.348Z,35.9
2018-06-25T16:42:07.994Z,35.8
2018-06-25T16:42:57.814Z,35.6
2018-06-25T16:43:48.359Z,35.6
2018-06-25T16:44:38.205Z,35.4
2018-06-25T16:45:27.757Z,35.3
2018-06-25T16:46:18.568Z,35.2
2018-06-25T16:47:08.372Z,35.1
2018-06-25T16:47:58.432Z,35
2018-06-25T16:48:48.798Z,34.9
2018-06-25T16:49:38.815Z,34.9
2018-06-25T16:50:28.901Z,34.8
2018-06-25T16:51:18.415Z,34.7
2018-06-25T16:52:08.476Z,34.6
2018-06-25T16:52:58.535Z,34.6
2018-06-25T16:53:48.315Z,34.5
2018-06-25T16:54:39.006Z,34.4
2018-06-25T16:55:28.978Z,34.4
2018-06-25T16:56:18.329Z,34.3
2018-06-25T16:57:08.904Z,34.3
2018-06-25T16:57:59.465Z,34.2
2018-06-25T16:58:49.032Z,34.1
2018-06-25T16:59:39.167Z,34.1
2018-06-25T17:00:29.204Z,34
2018-06-25T17:01:18.990Z,33.9
2018-06-25T17:02:06.458Z,33.9
2018-06-25T17:02:59.037Z,33.8
2018-06-25T17:03:48.964Z,33.8
2018-06-25T17:04:38.966Z,33.8
2018-06-25T17:05:29.295Z,33.7
2018-06-25T17:06:18.783Z,33.7
2018-06-25T17:07:09.670Z,33.6
2018-06-25T17:07:59.377Z,33.6
2018-06-25T17:08:49.575Z,33.5
2018-06-25T17:09:39.605Z,33.5
2018-06-25T17:10:29.758Z,33.4
2018-06-25T17:11:20.542Z,33.4
2018-06-25T17:12:10.580Z,33.4
2018-06-25T17:13:00.037Z,33.4
2018-06-25T17:13:49.821Z,33.3
2018-06-25T17:14:40.737Z,33.3
2018-06-25T17:15:29.958Z,33.3
2018-06-25T17:16:20.622Z,33.3
2018-06-25T17:17:10.676Z,33.2
2018-06-25T17:18:00.719Z,33.2
2018-06-25T17:18:50.474Z,33.1
2018-06-25T17:19:39.975Z,33.1
2018-06-25T17:20:30.880Z,33.1
2018-06-25T17:21:20.491Z,33.1
2018-06-25T17:22:11.883Z,33.1
2018-06-25T17:23:00.786Z,33
2018-06-25T17:23:50.856Z,33
2018-06-25T17:24:41.473Z,33
2018-06-25T17:25:31.577Z,33
2018-06-25T17:26:21.368Z,32.9
2018-06-25T17:27:10.850Z,32.9
2018-06-25T17:28:01.723Z,32.9
2018-06-25T17:28:52.340Z,32.9
2018-06-25T17:29:41.593Z,32.8
2018-06-25T17:30:31.678Z,32.8
2018-06-25T17:31:21.458Z,32.8
2018-06-25T17:32:12.052Z,32.8
2018-06-25T17:33:02.186Z,32.8
2018-06-25T17:33:52.183Z,32.7
2018-06-25T17:34:42.261Z,32.6
2018-06-25T17:35:31.820Z,32.6
2018-06-25T17:36:20.960Z,32.6
2018-06-25T17:37:11.320Z,32.6
2018-06-25T17:38:02.574Z,32.4
2018-06-25T17:38:52.350Z,32.4
2018-06-25T17:39:42.398Z,32.4
2018-06-25T17:40:32.457Z,32.4
2018-06-25T17:41:22.481Z,32.4
2018-06-25T17:42:12.299Z,32.3
2018-06-25T17:43:01.858Z,32.3
2018-06-25T17:43:52.983Z,32.3
2018-06-25T17:44:42.479Z,32.2
2018-06-25T17:45:32.813Z,32.2
2018-06-25T17:46:22.595Z,32.2
2018-06-25T17:47:12.955Z,32.1
2018-06-25T17:48:03.026Z,32.1
2018-06-25T17:48:53.057Z,32.1
2018-06-25T17:49:43.118Z,32.1
2018-06-25T17:50:32.898Z,32.1
2018-06-25T17:51:23.289Z,32
2018-06-25T17:52:13.077Z,32
2018-06-25T17:53:03.376Z,32
2018-06-25T17:53:53.718Z,31.9
2018-06-25T17:54:43.539Z,31.9
2018-06-25T17:55:33.859Z,31.9
2018-06-25T17:56:23.983Z,31.9
2018-06-25T17:57:13.430Z,31.8
2018-06-25T17:58:03.745Z,31.8
2018-06-25T17:58:53.858Z,31.8
2018-06-25T17:59:43.915Z,31.8
2018-06-25T18:00:32.930Z,31.7
2018-06-25T18:01:23.345Z,31.7
2018-06-25T18:02:13.832Z,31.6
2018-06-25T18:03:03.867Z,31.6
2018-06-25T18:03:54.342Z,31.6
2018-06-25T18:04:43.699Z,31.5
2018-06-25T18:05:34.626Z,31.5
2018-06-25T18:06:24.407Z,31.4
2018-06-25T18:07:14.750Z,31.4
2018-06-25T18:08:03.967Z,31.4
2018-06-25T18:08:54.040Z,31.4
2018-06-25T18:09:44.611Z,31.4
2018-06-25T18:10:34.696Z,31.3
2018-06-25T18:11:24.805Z,31.3
2018-06-25T18:12:14.545Z,31.3
2018-06-25T18:13:04.900Z,31.3
2018-06-25T18:13:54.932Z,31.3
2018-06-25T18:14:43.678Z,31.3
2018-06-25T18:15:33.847Z,31.3
2018-06-25T18:16:23.947Z,31.3
2018-06-25T18:17:14.207Z,31.2
2018-06-25T18:18:04.256Z,31.3
2018-06-25T18:18:54.951Z,31.2
2018-06-25T18:19:44.934Z,31.2
2018-06-25T18:20:35.276Z,31.1
2018-06-25T18:21:24.464Z,31.1
2018-06-25T18:22:15.135Z,31.1
2018-06-25T18:23:04.903Z,31.1
2018-06-25T18:23:55.296Z,31.1
2018-06-25T18:24:45.308Z,31.1
2018-06-25T18:25:34.818Z,31.1
2018-06-25T18:26:25.151Z,31.1
2018-06-25T18:27:15.950Z,31.1
2018-06-25T18:28:05.487Z,31.1
2018-06-25T18:28:56.111Z,31
2018-06-25T18:29:46.422Z,31
2018-06-25T18:30:35.661Z,31
2018-06-25T18:31:25.922Z,31
2018-06-25T18:32:16.053Z,31
2018-06-25T18:33:06.739Z,30.9
2018-06-25T18:33:56.172Z,30.9
2018-06-25T18:34:46.833Z,30.9
2018-06-25T18:35:36.370Z,30.9
2018-06-25T18:36:26.948Z,30.9
2018-06-25T18:37:16.720Z,30.9
2018-06-25T18:38:06.286Z,30.9
2018-06-25T18:38:56.591Z,30.9
2018-06-25T18:39:46.745Z,30.9
2018-06-25T18:40:36.332Z,30.8
2018-06-25T18:41:27.118Z,30.8
2018-06-25T18:42:16.657Z,30.8
2018-06-25T18:43:07.536Z,30.8
2018-06-25T18:43:56.726Z,30.8
2018-06-25T18:44:47.882Z,30.8
2018-06-25T18:45:37.355Z,30.8
2018-06-25T18:46:27.465Z,30.8
2018-06-25T18:47:17.812Z,30.8
2018-06-25T18:48:07.538Z,30.8
2018-06-25T18:48:57.955Z,30.8
2018-06-25T18:49:47.439Z,30.8
2018-06-25T18:50:37.429Z,30.7
2018-06-25T18:51:27.308Z,30.7
2018-06-25T18:52:17.849Z,30.7
2018-06-25T18:53:08.188Z,30.7
2018-06-25T18:53:58.350Z,30.7
2018-06-25T18:54:48.366Z,30.7
2018-06-25T18:55:38.130Z,30.6
2018-06-25T18:56:28.471Z,30.6
2018-06-25T18:57:18.839Z,30.7
2018-06-25T18:58:07.731Z,30.6
2018-06-25T18:58:58.100Z,30.6
2018-06-25T18:59:48.750Z,30.6
2018-06-25T19:00:38.235Z,30.6
2018-06-25T19:01:47.525Z,30.6
2018-06-25T19:02:18.624Z,30.6
2018-06-25T19:03:08.759Z,30.6
2018-06-25T19:03:58.465Z,30.6
2018-06-25T19:04:48.538Z,30.6
2018-06-25T19:05:39.487Z,30.6
2018-06-25T19:06:28.705Z,30.6
2018-06-25T19:07:19.310Z,30.6
2018-06-25T19:08:09.125Z,30.6
2018-06-25T19:08:58.867Z,30.6
2018-06-25T19:09:48.633Z,30.5
2018-06-25T19:10:38.716Z,30.5
2018-06-25T19:11:28.211Z,30.5
2018-06-25T19:12:19.692Z,30.5
2018-06-25T19:13:08.707Z,30.5
2018-06-25T19:13:58.826Z,30.4
2018-06-25T19:14:49.373Z,30.4
2018-06-25T19:15:39.165Z,30.4
2018-06-25T19:16:29.188Z,30.4
2018-06-25T19:17:19.848Z,30.4
2018-06-25T19:18:09.098Z,30.4
2018-06-25T19:18:59.374Z,30.4
2018-06-25T19:19:50.273Z,30.4
2018-06-25T19:20:40.388Z,30.4
2018-06-25T19:21:29.528Z,30.4
2018-06-25T19:22:20.499Z,30.4
2018-06-25T19:23:09.970Z,30.4
2018-06-25T19:24:00.035Z,30.4
2018-06-25T19:24:49.365Z,30.4
2018-06-25T19:25:40.246Z,30.4
2018-06-25T19:26:31.015Z,30.4
2018-06-25T19:27:21.035Z,30.4
2018-06-25T19:28:10.624Z,30.4
2018-06-25T19:28:59.884Z,30.3
2018-06-25T19:29:51.219Z,30.4
2018-06-25T19:30:40.541Z,30.3
2018-06-25T19:31:30.990Z,30.3
2018-06-25T19:32:20.739Z,30.3
2018-06-25T19:33:11.000Z,30.3
2018-06-25T19:34:00.507Z,30.3
2018-06-25T19:34:51.110Z,30.3
2018-06-25T19:35:41.154Z,30.3
2018-06-25T19:36:31.266Z,30.3
2018-06-25T19:37:21.038Z,30.3
2018-06-25T19:38:11.050Z,30.3
2018-06-25T19:39:01.451Z,30.3
2018-06-25T19:39:51.529Z,30.3
2018-06-25T19:40:41.294Z,30.3
2018-06-25T19:41:30.785Z,30.3
2018-06-25T19:42:21.680Z,30.2
2018-06-25T19:43:11.754Z,30.2
2018-06-25T19:44:01.578Z,30.2
2018-06-25T19:44:51.577Z,30.2
2018-06-25T19:45:41.993Z,30.2
2018-06-25T19:46:32.384Z,30.2
2018-06-25T19:47:22.151Z,30.2
2018-06-25T19:48:11.364Z,30.1
2018-06-25T19:49:01.621Z,30.1
2018-06-25T19:49:52.286Z,30.1
2018-06-25T19:50:42.094Z,30.1
2018-06-25T19:51:32.427Z,30.1
2018-06-25T19:52:22.960Z,30.1
2018-06-25T19:53:12.540Z,30.1
2018-06-25T19:54:02.098Z,30.1
2018-06-25T19:54:52.187Z,30.1
2018-06-25T19:55:42.442Z,30.1
2018-06-25T19:56:32.179Z,30.1
2018-06-25T19:57:23.072Z,30.1
2018-06-25T19:58:12.386Z,30.1
2018-06-25T19:59:02.478Z,30.1
2018-06-25T19:59:53.219Z,30.1
2018-06-25T20:00:42.278Z,30.1
2018-06-25T20:01:32.948Z,30.1
2018-06-25T20:02:23.551Z,30.1
2018-06-25T20:03:13.339Z,30
2018-06-25T20:04:03.679Z,30
2018-06-25T20:04:53.222Z,30
2018-06-25T20:05:43.429Z,30
2018-06-25T20:06:33.627Z,30
2018-06-25T20:07:23.390Z,30
2018-06-25T20:08:13.555Z,30
2018-06-25T20:09:03.768Z,30
2018-06-25T20:09:53.299Z,30
2018-06-25T20:10:43.364Z,30
2018-06-25T20:11:33.394Z,29.9
2018-06-25T20:12:23.214Z,30
2018-06-25T20:13:13.622Z,29.9
2018-06-25T20:14:03.626Z,29.9
2018-06-25T20:14:53.485Z,29.9
2018-06-25T20:15:44.637Z,29.9
2018-06-25T20:16:34.633Z,29.9
2018-06-25T20:17:24.347Z,29.9
2018-06-25T20:18:14.211Z,29.9
2018-06-25T20:19:04.544Z,29.9
2018-06-25T20:19:54.441Z,29.9
2018-06-25T20:20:44.415Z,29.9
2018-06-25T20:21:34.833Z,29.9
2018-06-25T20:22:24.906Z,29.9
2018-06-25T20:23:14.848Z,29.9
2018-06-25T20:24:05.271Z,29.9
2018-06-25T20:24:55.496Z,29.9